sensor_id;sensor_type;location;lat;lon;timestamp;pressure;altitude;pressure_sealevel;temperature;humidity
6413;BME280;3239;48.714;9.472;2023-04-07T00:01:02;98335.56;;;6.82;100.00
6413;BME280;3239;48.714;9.472;2023-04-07T00:03:28;98339.50;;;6.86;100.00
6413;BME280;3239;48.714;9.472;2023-04-07T00:05:53;98338.03;;;6.96;100.00
6413;BME280;3239;48.714;9.472;2023-04-07T00:08:20;98340.00;;;6.96;100.00
6413;BME280;3239;48.714;9.472;2023-04-07T00:10:46;98338.28;;;6.93;100.00
6413;BME280;3239;48.714;9.472;2023-04-07T00:13:11;98337.53;;;7.09;100.00
6413;BME280;3239;48.714;9.472;2023-04-07T00:15:37;98333.31;;;6.80;100.00
6413;BME280;3239;48.714;9.472;2023-04-07T00:18:03;98338.25;;;6.87;100.00
6413;BME280;3239;48.714;9.472;2023-04-07T00:20:28;98333.31;;;6.86;100.00
6413;BME280;3239;48.714;9.472;2023-04-07T00:22:54;98339.03;;;6.88;100.00
6413;BME280;3239;48.714;9.472;2023-04-07T00:25:20;98339.53;;;6.92;100.00
6413;BME280;3239;48.714;9.472;2023-04-07T00:27:46;98338.78;;;6.91;100.00
6413;BME280;3239;48.714;9.472;2023-04-07T00:30:11;98341.72;;;6.93;100.00
6413;BME280;3239;48.714;9.472;2023-04-07T00:32:37;98340.25;;;6.81;100.00
6413;BME280;3239;48.714;9.472;2023-04-07T00:35:03;98339.53;;;6.81;100.00
6413;BME280;3239;48.714;9.472;2023-04-07T00:37:29;98342.25;;;6.81;100.00
6413;BME280;3239;48.714;9.472;2023-04-07T00:39:55;98340.00;;;6.85;100.00
6413;BME280;3239;48.714;9.472;2023-04-07T00:42:22;98329.59;;;6.83;100.00
6413;BME280;3239;48.714;9.472;2023-04-07T00:44:48;98338.00;;;6.63;100.00
6413;BME280;3239;48.714;9.472;2023-04-07T00:47:14;98333.81;;;6.68;100.00
6413;BME280;3239;48.714;9.472;2023-04-07T00:49:40;98346.44;;;6.71;100.00
6413;BME280;3239;48.714;9.472;2023-04-07T00:52:05;98340.50;;;6.78;100.00
6413;BME280;3239;48.714;9.472;2023-04-07T00:54:32;98342.22;;;6.75;100.00
6413;BME280;3239;48.714;9.472;2023-04-07T00:56:58;98342.97;;;6.70;100.00
6413;BME280;3239;48.714;9.472;2023-04-07T00:59:24;98344.19;;;6.64;100.00
6413;BME280;3239;48.714;9.472;2023-04-07T01:02:09;98335.28;;;6.69;100.00
6413;BME280;3239;48.714;9.472;2023-04-07T01:07:20;98345.19;;;6.66;100.00
6413;BME280;3239;48.714;9.472;2023-04-07T01:10:03;98339.72;;;6.66;100.00
6413;BME280;3239;48.714;9.472;2023-04-07T01:13:01;98345.44;;;6.68;100.00
6413;BME280;3239;48.714;9.472;2023-04-07T01:15:30;98337.03;;;6.61;100.00
6413;BME280;3239;48.714;9.472;2023-04-07T01:18:16;98353.84;;;6.59;100.00
6413;BME280;3239;48.714;9.472;2023-04-07T01:20:47;98355.81;;;6.64;100.00
6413;BME280;3239;48.714;9.472;2023-04-07T01:23:26;98350.63;;;6.72;100.00
6413;BME280;3239;48.714;9.472;2023-04-07T01:26:25;98346.66;;;6.67;100.00
6413;BME280;3239;48.714;9.472;2023-04-07T01:31:49;98347.41;;;6.57;100.00
6413;BME280;3239;48.714;9.472;2023-04-07T01:34:16;98341.94;;;6.57;100.00
6413;BME280;3239;48.714;9.472;2023-04-07T01:36:43;98353.09;;;6.59;100.00
6413;BME280;3239;48.714;9.472;2023-04-07T01:39:10;98351.63;;;6.69;100.00
6413;BME280;3239;48.714;9.472;2023-04-07T01:41:37;98353.84;;;6.59;100.00
6413;BME280;3239;48.714;9.472;2023-04-07T01:44:06;98341.72;;;6.60;100.00
6413;BME280;3239;48.714;9.472;2023-04-07T01:46:33;98345.44;;;6.63;100.00
6413;BME280;3239;48.714;9.472;2023-04-07T01:48:59;98339.47;;;6.59;100.00
6413;BME280;3239;48.714;9.472;2023-04-07T01:51:27;98345.88;;;6.50;100.00
6413;BME280;3239;48.714;9.472;2023-04-07T01:53:53;98342.44;;;6.50;100.00
6413;BME280;3239;48.714;9.472;2023-04-07T01:56:19;98336.75;;;6.59;100.00
6413;BME280;3239;48.714;9.472;2023-04-07T01:58:45;98333.53;;;6.49;100.00
6413;BME280;3239;48.714;9.472;2023-04-07T02:01:13;98343.44;;;6.52;100.00
6413;BME280;3239;48.714;9.472;2023-04-07T02:03:48;98352.59;;;6.55;100.00
6413;BME280;3239;48.714;9.472;2023-04-07T02:06:21;98344.44;;;6.55;100.00
6413;BME280;3239;48.714;9.472;2023-04-07T02:08:54;98345.88;;;6.50;100.00
6413;BME280;3239;48.714;9.472;2023-04-07T02:11:22;98345.66;;;6.54;100.00
6413;BME280;3239;48.714;9.472;2023-04-07T02:13:52;98350.09;;;6.51;100.00
6413;BME280;3239;48.714;9.472;2023-04-07T02:16:19;98352.78;;;6.40;100.00
6413;BME280;3239;48.714;9.472;2023-04-07T02:18:46;98352.09;;;6.51;100.00
6413;BME280;3239;48.714;9.472;2023-04-07T02:21:14;98344.41;;;6.44;100.00
6413;BME280;3239;48.714;9.472;2023-04-07T02:23:40;98345.44;;;6.57;100.00
6413;BME280;3239;48.714;9.472;2023-04-07T02:26:06;98341.94;;;6.57;100.00
6413;BME280;3239;48.714;9.472;2023-04-07T02:28:32;98341.94;;;6.57;100.00
6413;BME280;3239;48.714;9.472;2023-04-07T02:30:57;98330.31;;;6.51;100.00
6413;BME280;3239;48.714;9.472;2023-04-07T02:33:23;98324.63;;;6.54;100.00
6413;BME280;3239;48.714;9.472;2023-04-07T02:35:49;98323.16;;;6.53;100.00
6413;BME280;3239;48.714;9.472;2023-04-07T02:38:15;98320.94;;;6.57;100.00
6413;BME280;3239;48.714;9.472;2023-04-07T02:40:40;98315.22;;;6.55;100.00
6413;BME280;3239;48.714;9.472;2023-04-07T02:43:06;98324.13;;;6.50;100.00
6413;BME280;3239;48.714;9.472;2023-04-07T02:45:32;98313.25;;;6.45;100.00
6413;BME280;3239;48.714;9.472;2023-04-07T02:47:57;98319.94;;;6.60;100.00
6413;BME280;3239;48.714;9.472;2023-04-07T02:50:23;98305.09;;;6.56;100.00
6413;BME280;3239;48.714;9.472;2023-04-07T02:52:50;98305.56;;;6.54;100.00
6413;BME280;3239;48.714;9.472;2023-04-07T02:55:16;98312.25;;;6.53;100.00
6413;BME280;3239;48.714;9.472;2023-04-07T02:57:43;98307.06;;;6.50;100.00
6413;BME280;3239;48.714;9.472;2023-04-07T03:00:09;98308.53;;;6.51;100.00
6413;BME280;3239;48.714;9.472;2023-04-07T03:02:35;98302.13;;;6.59;100.00
6413;BME280;3239;48.714;9.472;2023-04-07T03:05:01;98295.19;;;6.64;100.00
6413;BME280;3239;48.714;9.472;2023-04-07T03:07:28;98292.72;;;6.66;100.00
6413;BME280;3239;48.714;9.472;2023-04-07T03:09:56;98287.78;;;6.64;100.00
6413;BME280;3239;48.714;9.472;2023-04-07T03:12:22;98278.59;;;6.62;100.00
6413;BME280;3239;48.714;9.472;2023-04-07T03:14:48;98276.88;;;6.70;100.00
6413;BME280;3239;48.714;9.472;2023-04-07T03:17:13;98274.41;;;6.72;100.00
6413;BME280;3239;48.714;9.472;2023-04-07T03:19:39;98269.94;;;6.69;100.00
6413;BME280;3239;48.714;9.472;2023-04-07T03:22:05;98266.72;;;6.70;100.00
6413;BME280;3239;48.714;9.472;2023-04-07T03:24:30;98266.72;;;6.70;100.00
6413;BME280;3239;48.714;9.472;2023-04-07T03:26:56;98262.03;;;6.60;100.00
6413;BME280;3239;48.714;9.472;2023-04-07T03:29:22;98262.28;;;6.73;100.00
6413;BME280;3239;48.714;9.472;2023-04-07T03:31:47;98268.72;;;6.81;100.00
6413;BME280;3239;48.714;9.472;2023-04-07T03:34:14;98279.84;;;6.83;100.00
6413;BME280;3239;48.714;9.472;2023-04-07T03:36:39;98280.34;;;6.81;100.00
6413;BME280;3239;48.714;9.472;2023-04-07T03:39:05;98286.78;;;6.84;100.00
6413;BME280;3239;48.714;9.472;2023-04-07T03:41:31;98279.84;;;6.88;100.00
6413;BME280;3239;48.714;9.472;2023-04-07T03:43:57;98283.31;;;6.89;100.00
6413;BME280;3239;48.714;9.472;2023-04-07T03:46:23;98284.78;;;6.90;100.00
6413;BME280;3239;48.714;9.472;2023-04-07T03:48:51;98282.81;;;6.90;100.00
6413;BME280;3239;48.714;9.472;2023-04-07T03:51:17;98282.56;;;6.83;100.00
6413;BME280;3239;48.714;9.472;2023-04-07T03:53:43;98299.41;;;6.81;100.00
6413;BME280;3239;48.714;9.472;2023-04-07T03:56:09;98302.38;;;6.78;100.00
6413;BME280;3239;48.714;9.472;2023-04-07T03:58:35;98307.34;;;6.79;100.00
6413;BME280;3239;48.714;9.472;2023-04-07T04:01:00;98308.81;;;6.80;100.00
6413;BME280;3239;48.714;9.472;2023-04-07T04:03:27;98305.09;;;6.78;100.00
6413;BME280;3239;48.714;9.472;2023-04-07T04:05:52;98306.09;;;6.58;100.00
6413;BME280;3239;48.714;9.472;2023-04-07T04:08:19;98306.56;;;6.57;100.00
6413;BME280;3239;48.714;9.472;2023-04-07T04:10:45;98305.31;;;6.58;100.00
6413;BME280;3239;48.714;9.472;2023-04-07T04:13:11;98299.16;;;6.63;100.00
6413;BME280;3239;48.714;9.472;2023-04-07T04:15:36;98304.81;;;6.54;100.00
6413;BME280;3239;48.714;9.472;2023-04-07T04:18:02;98301.84;;;6.52;100.00
6413;BME280;3239;48.714;9.472;2023-04-07T04:20:28;98308.28;;;6.54;100.00
6413;BME280;3239;48.714;9.472;2023-04-07T04:22:54;98313.25;;;6.56;100.00
6413;BME280;3239;48.714;9.472;2023-04-07T04:25:20;98316.69;;;6.56;100.00
6413;BME280;3239;48.714;9.472;2023-04-07T04:27:45;98313.72;;;6.49;100.00
6413;BME280;3239;48.714;9.472;2023-04-07T04:30:11;98314.22;;;6.36;100.00
6413;BME280;3239;48.714;9.472;2023-04-07T04:32:37;98323.13;;;6.48;100.00
6413;BME280;3239;48.714;9.472;2023-04-07T04:35:04;98325.09;;;6.42;100.00
6413;BME280;3239;48.714;9.472;2023-04-07T04:37:30;98327.31;;;6.32;100.00
6413;BME280;3239;48.714;9.472;2023-04-07T04:39:56;98335.22;;;6.36;100.00
6413;BME280;3239;48.714;9.472;2023-04-07T04:42:22;98333.00;;;6.34;100.00
6413;BME280;3239;48.714;9.472;2023-04-07T04:44:48;98338.69;;;6.36;100.00
6413;BME280;3239;48.714;9.472;2023-04-07T04:47:13;98343.41;;;6.36;100.00
6413;BME280;3239;48.714;9.472;2023-04-07T04:49:40;98345.13;;;6.33;100.00
6413;BME280;3239;48.714;9.472;2023-04-07T04:52:05;98342.63;;;6.35;100.00
6413;BME280;3239;48.714;9.472;2023-04-07T04:54:31;98335.47;;;6.32;100.00
6413;BME280;3239;48.714;9.472;2023-04-07T04:56:57;98338.69;;;6.36;100.00
6413;BME280;3239;48.714;9.472;2023-04-07T04:59:23;98333.25;;;6.36;100.00
6413;BME280;3239;48.714;9.472;2023-04-07T05:01:49;98328.03;;;6.33;100.00
6413;BME280;3239;48.714;9.472;2023-04-07T05:04:14;98333.72;;;6.29;100.00
6413;BME280;3239;48.714;9.472;2023-04-07T05:06:41;98337.72;;;6.39;100.00
6413;BME280;3239;48.714;9.472;2023-04-07T05:09:06;98332.03;;;6.37;100.00
6413;BME280;3239;48.714;9.472;2023-04-07T05:11:32;98333.00;;;6.29;100.00
6413;BME280;3239;48.714;9.472;2023-04-07T05:13:58;98331.28;;;6.31;100.00
6413;BME280;3239;48.714;9.472;2023-04-07T05:16:23;98347.09;;;6.33;100.00
6413;BME280;3239;48.714;9.472;2023-04-07T05:18:49;98345.84;;;6.28;100.00
6413;BME280;3239;48.714;9.472;2023-04-07T05:21:15;98345.81;;;6.17;100.00
6413;BME280;3239;48.714;9.472;2023-04-07T05:23:41;98351.50;;;6.14;100.00
6413;BME280;3239;48.714;9.472;2023-04-07T05:26:07;98366.09;;;6.16;100.00
6413;BME280;3239;48.714;9.472;2023-04-07T05:28:32;98362.59;;;6.10;100.00
6413;BME280;3239;48.714;9.472;2023-04-07T05:30:58;98366.31;;;6.13;100.00
6413;BME280;3239;48.714;9.472;2023-04-07T05:33:25;98368.09;;;6.27;100.00
6413;BME280;3239;48.714;9.472;2023-04-07T05:35:51;98381.00;;;6.37;100.00
6413;BME280;3239;48.714;9.472;2023-04-07T05:38:17;98385.44;;;6.40;100.00
6413;BME280;3239;48.714;9.472;2023-04-07T05:40:42;98383.47;;;6.41;100.00
6413;BME280;3239;48.714;9.472;2023-04-07T05:43:08;98394.38;;;6.46;100.00
6413;BME280;3239;48.714;9.472;2023-04-07T05:45:34;98392.44;;;6.52;100.00
6413;BME280;3239;48.714;9.472;2023-04-07T05:48:00;98397.16;;;6.57;100.00
6413;BME280;3239;48.714;9.472;2023-04-07T05:50:25;98395.41;;;6.60;100.00
6413;BME280;3239;48.714;9.472;2023-04-07T05:52:51;98403.03;;;6.50;100.00
6413;BME280;3239;48.714;9.472;2023-04-07T05:55:17;98404.56;;;6.57;100.00
6413;BME280;3239;48.714;9.472;2023-04-07T05:57:42;98400.34;;;6.61;100.00
6413;BME280;3239;48.714;9.472;2023-04-07T06:00:09;98410.50;;;6.61;100.00
6413;BME280;3239;48.714;9.472;2023-04-07T06:02:35;98398.84;;;6.49;100.00
6413;BME280;3239;48.714;9.472;2023-04-07T06:05:01;98415.94;;;6.50;100.00
6413;BME280;3239;48.714;9.472;2023-04-07T06:07:27;98416.41;;;6.54;100.00
6413;BME280;3239;48.714;9.472;2023-04-07T06:09:52;98423.38;;;6.55;100.00
6413;BME280;3239;48.714;9.472;2023-04-07T06:12:18;98429.06;;;6.57;100.00
6413;BME280;3239;48.714;9.472;2023-04-07T06:14:51;98426.81;;;6.55;100.00
6413;BME280;3239;48.714;9.472;2023-04-07T06:17:17;98426.13;;;6.66;100.00
6413;BME280;3239;48.714;9.472;2023-04-07T06:19:43;98418.69;;;6.66;100.00
6413;BME280;3239;48.714;9.472;2023-04-07T06:22:09;98421.41;;;6.66;100.00
6413;BME280;3239;48.714;9.472;2023-04-07T06:24:35;98420.91;;;6.62;100.00
6413;BME280;3239;48.714;9.472;2023-04-07T06:27:02;98414.50;;;6.71;100.00
6413;BME280;3239;48.714;9.472;2023-04-07T06:29:29;98410.06;;;6.73;100.00
6413;BME280;3239;48.714;9.472;2023-04-07T06:31:55;98396.69;;;6.75;100.00
6413;BME280;3239;48.714;9.472;2023-04-07T06:34:21;98397.44;;;6.81;100.00
6413;BME280;3239;48.714;9.472;2023-04-07T06:36:47;98394.00;;;6.92;100.00
6413;BME280;3239;48.714;9.472;2023-04-07T06:39:12;98375.66;;;6.98;100.00
6413;BME280;3239;48.714;9.472;2023-04-07T06:41:38;98363.28;;;7.02;100.00
6413;BME280;3239;48.714;9.472;2023-04-07T06:44:08;98358.81;;;7.16;100.00
6413;BME280;3239;48.714;9.472;2023-04-07T06:46:35;98348.66;;;7.27;100.00
6413;BME280;3239;48.714;9.472;2023-04-07T06:49:01;98328.56;;;7.47;100.00
6413;BME280;3239;48.714;9.472;2023-04-07T06:51:28;98317.44;;;7.45;100.00
6413;BME280;3239;48.714;9.472;2023-04-07T06:53:54;98306.97;;;7.65;100.00
6413;BME280;3239;48.714;9.472;2023-04-07T06:56:22;98300.75;;;7.76;100.00
6413;BME280;3239;48.714;9.472;2023-04-07T06:58:48;98276.66;;;7.85;100.00
6413;BME280;3239;48.714;9.472;2023-04-07T07:01:14;98268.94;;;7.84;100.00
6413;BME280;3239;48.714;9.472;2023-04-07T07:03:40;98258.47;;;7.93;100.00
6413;BME280;3239;48.714;9.472;2023-04-07T07:06:06;98248.75;;;8.09;100.00
6413;BME280;3239;48.714;9.472;2023-04-07T07:08:31;98242.47;;;8.25;100.00
6413;BME280;3239;48.714;9.472;2023-04-07T07:10:57;98232.03;;;8.29;100.00
6413;BME280;3239;48.714;9.472;2023-04-07T07:13:25;98214.69;;;8.56;100.00
6413;BME280;3239;48.714;9.472;2023-04-07T07:15:51;98219.09;;;8.64;100.00
6413;BME280;3239;48.714;9.472;2023-04-07T07:18:17;98208.56;;;8.74;100.00
6413;BME280;3239;48.714;9.472;2023-04-07T07:20:43;98203.88;;;8.45;100.00
6413;BME280;3239;48.714;9.472;2023-04-07T07:23:09;98202.84;;;8.13;100.00
6413;BME280;3239;48.714;9.472;2023-04-07T07:25:35;98200.94;;;8.37;100.00
6413;BME280;3239;48.714;9.472;2023-04-07T07:28:01;98210.31;;;8.47;100.00
6413;BME280;3239;48.714;9.472;2023-04-07T07:30:27;98210.31;;;8.77;100.00
6413;BME280;3239;48.714;9.472;2023-04-07T07:32:53;98203.06;;;9.27;100.00
6413;BME280;3239;48.714;9.472;2023-04-07T07:35:20;98182.53;;;9.21;100.00
6413;BME280;3239;48.714;9.472;2023-04-07T07:37:46;98167.94;;;9.74;100.00
6413;BME280;3239;48.714;9.472;2023-04-07T07:40:12;98153.00;;;10.56;100.00
6413;BME280;3239;48.714;9.472;2023-04-07T07:42:38;98116.06;;;11.15;100.00
6413;BME280;3239;48.714;9.472;2023-04-07T07:45:04;98083.97;;;11.36;100.00
6413;BME280;3239;48.714;9.472;2023-04-07T07:47:30;98057.69;;;11.94;100.00
6413;BME280;3239;48.714;9.472;2023-04-07T07:49:56;98041.25;;;12.43;100.00
6413;BME280;3239;48.714;9.472;2023-04-07T07:52:22;98036.19;;;12.06;100.00
6413;BME280;3239;48.714;9.472;2023-04-07T07:54:49;98031.91;;;12.74;100.00
6413;BME280;3239;48.714;9.472;2023-04-07T07:57:15;98019.03;;;12.97;100.00
6413;BME280;3239;48.714;9.472;2023-04-07T07:59:41;98012.47;;;11.54;100.00
6413;BME280;3239;48.714;9.472;2023-04-07T08:02:08;98019.44;;;12.73;100.00
6413;BME280;3239;48.714;9.472;2023-04-07T08:04:35;98008.69;;;13.25;100.00
6413;BME280;3239;48.714;9.472;2023-04-07T08:07:01;98015.06;;;14.01;100.00
6413;BME280;3239;48.714;9.472;2023-04-07T08:09:27;98006.75;;;14.61;100.00
6413;BME280;3239;48.714;9.472;2023-04-07T08:11:53;98004.19;;;14.63;100.00
6413;BME280;3239;48.714;9.472;2023-04-07T08:14:19;97990.63;;;13.90;100.00
6413;BME280;3239;48.714;9.472;2023-04-07T08:16:45;98003.84;;;13.84;100.00
6413;BME280;3239;48.714;9.472;2023-04-07T08:19:12;98000.38;;;14.36;100.00
6413;BME280;3239;48.714;9.472;2023-04-07T08:21:38;97990.78;;;14.59;100.00
6413;BME280;3239;48.714;9.472;2023-04-07T08:24:05;97999.25;;;14.46;100.00
6413;BME280;3239;48.714;9.472;2023-04-07T08:26:32;97985.28;;;15.46;100.00
6413;BME280;3239;48.714;9.472;2023-04-07T08:28:57;97990.88;;;14.91;100.00
6413;BME280;3239;48.714;9.472;2023-04-07T08:31:23;97987.56;;;12.42;100.00
6413;BME280;3239;48.714;9.472;2023-04-07T08:33:49;97999.06;;;12.96;100.00
6413;BME280;3239;48.714;9.472;2023-04-07T08:36:19;97999.81;;;13.77;100.00
6413;BME280;3239;48.714;9.472;2023-04-07T08:38:45;97991.38;;;14.35;100.00
6413;BME280;3239;48.714;9.472;2023-04-07T08:41:29;97991.41;;;14.97;100.00
6413;BME280;3239;48.714;9.472;2023-04-07T08:43:57;97993.34;;;13.52;100.00
6413;BME280;3239;48.714;9.472;2023-04-07T08:46:25;97996.06;;;13.37;100.00
6413;BME280;3239;48.714;9.472;2023-04-07T08:48:52;98000.00;;;14.09;100.00
6413;BME280;3239;48.714;9.472;2023-04-07T08:51:30;97996.75;;;12.80;100.00
6413;BME280;3239;48.714;9.472;2023-04-07T08:54:11;97998.44;;;12.90;100.00
6413;BME280;3239;48.714;9.472;2023-04-07T08:56:39;98004.41;;;13.09;100.00
6413;BME280;3239;48.714;9.472;2023-04-07T08:59:11;98003.50;;;13.07;100.00
6413;BME280;3239;48.714;9.472;2023-04-07T09:01:39;98002.91;;;12.37;100.00
6413;BME280;3239;48.714;9.472;2023-04-07T09:04:06;98007.88;;;12.11;100.00
6413;BME280;3239;48.714;9.472;2023-04-07T09:06:33;98008.66;;;12.47;100.00
6413;BME280;3239;48.714;9.472;2023-04-07T09:09:01;98010.09;;;13.11;100.00
6413;BME280;3239;48.714;9.472;2023-04-07T09:11:28;98013.59;;;14.00;100.00
6413;BME280;3239;48.714;9.472;2023-04-07T09:13:54;98002.31;;;13.45;100.00
6413;BME280;3239;48.714;9.472;2023-04-07T09:16:21;97997.13;;;12.84;100.00
6413;BME280;3239;48.714;9.472;2023-04-07T09:18:48;98005.50;;;12.99;100.00
6413;BME280;3239;48.714;9.472;2023-04-07T09:21:14;98007.31;;;12.96;100.00
6413;BME280;3239;48.714;9.472;2023-04-07T09:23:41;98007.00;;;12.79;100.00
6413;BME280;3239;48.714;9.472;2023-04-07T09:26:24;98010.38;;;12.57;100.00
6413;BME280;3239;48.714;9.472;2023-04-07T09:28:56;98009.72;;;12.16;100.00
6413;BME280;3239;48.714;9.472;2023-04-07T09:31:49;98012.22;;;12.06;100.00
6413;BME280;3239;48.714;9.472;2023-04-07T09:34:34;98020.06;;;12.51;100.00
6413;BME280;3239;48.714;9.472;2023-04-07T09:37:01;98018.56;;;12.78;100.00
6413;BME280;3239;48.714;9.472;2023-04-07T09:39:27;98012.28;;;12.42;100.00
6413;BME280;3239;48.714;9.472;2023-04-07T09:41:54;98017.56;;;12.40;100.00
6413;BME280;3239;48.714;9.472;2023-04-07T09:44:21;98014.41;;;12.56;100.00
6413;BME280;3239;48.714;9.472;2023-04-07T09:46:55;98017.88;;;12.29;100.00
6413;BME280;3239;48.714;9.472;2023-04-07T09:49:26;98016.22;;;12.54;100.00
6413;BME280;3239;48.714;9.472;2023-04-07T09:52:00;98017.81;;;12.21;100.00
6413;BME280;3239;48.714;9.472;2023-04-07T09:54:40;98025.19;;;12.54;100.00
6413;BME280;3239;48.714;9.472;2023-04-07T09:57:10;98014.41;;;12.56;100.00
6413;BME280;3239;48.714;9.472;2023-04-07T09:59:39;98009.09;;;12.30;100.00
6413;BME280;3239;48.714;9.472;2023-04-07T10:02:07;98011.31;;;12.32;100.00
6413;BME280;3239;48.714;9.472;2023-04-07T10:04:33;98005.31;;;12.13;100.00
6413;BME280;3239;48.714;9.472;2023-04-07T10:06:59;98006.53;;;12.04;100.00
6413;BME280;3239;48.714;9.472;2023-04-07T10:09:29;98011.16;;;12.37;100.00
6413;BME280;3239;48.714;9.472;2023-04-07T10:11:57;98009.63;;;12.92;100.00
6413;BME280;3239;48.714;9.472;2023-04-07T10:14:30;98004.56;;;12.68;100.00
6413;BME280;3239;48.714;9.472;2023-04-07T10:16:58;98012.53;;;13.22;100.00
6413;BME280;3239;48.714;9.472;2023-04-07T10:19:25;98007.81;;;13.38;100.00
6413;BME280;3239;48.714;9.472;2023-04-07T10:21:54;98005.84;;;13.03;100.00
6413;BME280;3239;48.714;9.472;2023-04-07T10:24:43;98019.72;;;12.90;100.00
6413;BME280;3239;48.714;9.472;2023-04-07T10:27:18;98000.16;;;12.65;100.00
6413;BME280;3239;48.714;9.472;2023-04-07T10:29:48;98009.91;;;13.09;100.00
6413;BME280;3239;48.714;9.472;2023-04-07T10:32:15;98002.66;;;13.27;100.00
6413;BME280;3239;48.714;9.472;2023-04-07T10:37:20;98013.22;;;13.81;100.00
6413;BME280;3239;48.714;9.472;2023-04-07T10:45:07;98000.38;;;13.91;100.00
6413;BME280;3239;48.714;9.472;2023-04-07T10:47:35;98007.31;;;13.69;100.00
6413;BME280;3239;48.714;9.472;2023-04-07T10:50:22;98007.91;;;14.35;100.00
6413;BME280;3239;48.714;9.472;2023-04-07T10:53:10;98011.53;;;14.75;100.00
6413;BME280;3239;48.714;9.472;2023-04-07T10:55:44;98006.00;;;14.75;100.00
6413;BME280;3239;48.714;9.472;2023-04-07T11:03:37;98010.03;;;14.74;100.00
6413;BME280;3239;48.714;9.472;2023-04-07T11:06:13;97998.81;;;14.72;100.00
6413;BME280;3239;48.714;9.472;2023-04-07T11:08:44;98002.50;;;14.67;100.00
6413;BME280;3239;48.714;9.472;2023-04-07T11:11:13;98004.78;;;13.94;100.00
6413;BME280;3239;48.714;9.472;2023-04-07T11:16:09;98003.97;;;13.48;100.00
6413;BME280;3239;48.714;9.472;2023-04-07T11:18:36;98005.03;;;12.87;100.00
6413;BME280;3239;48.714;9.472;2023-04-07T11:21:03;98006.88;;;13.35;100.00
6413;BME280;3239;48.714;9.472;2023-04-07T11:23:44;98011.13;;;13.44;100.00
6413;BME280;3239;48.714;9.472;2023-04-07T11:26:13;98002.38;;;13.98;100.00
6413;BME280;3239;48.714;9.472;2023-04-07T11:28:53;98013.22;;;13.08;100.00
6413;BME280;3239;48.714;9.472;2023-04-07T11:31:28;98010.44;;;12.72;100.00
6413;BME280;3239;48.714;9.472;2023-04-07T11:34:01;98010.66;;;13.10;100.00
6413;BME280;3239;48.714;9.472;2023-04-07T11:36:40;98013.19;;;13.66;100.00
6413;BME280;3239;48.714;9.472;2023-04-07T11:39:18;98015.34;;;13.52;100.00
6413;BME280;3239;48.714;9.472;2023-04-07T11:41:47;98011.00;;;13.79;100.00
6413;BME280;3239;48.714;9.472;2023-04-07T11:44:14;98008.25;;;13.64;100.00
6413;BME280;3239;48.714;9.472;2023-04-07T11:46:57;98010.81;;;13.70;100.00
6413;BME280;3239;48.714;9.472;2023-04-07T11:49:26;98001.81;;;13.77;100.00
6413;BME280;3239;48.714;9.472;2023-04-07T11:52:02;98007.81;;;13.38;100.00
6413;BME280;3239;48.714;9.472;2023-04-07T11:54:58;98008.25;;;13.87;100.00
6413;BME280;3239;48.714;9.472;2023-04-07T11:57:26;98004.75;;;14.16;100.00
6413;BME280;3239;48.714;9.472;2023-04-07T12:00:09;98007.16;;;13.90;100.00
6413;BME280;3239;48.714;9.472;2023-04-07T12:02:36;98003.97;;;13.48;100.00
6413;BME280;3239;48.714;9.472;2023-04-07T12:05:03;98006.97;;;14.03;100.00
6413;BME280;3239;48.714;9.472;2023-04-07T12:07:28;97999.63;;;13.68;100.00
6413;BME280;3239;48.714;9.472;2023-04-07T12:09:54;97999.06;;;13.62;100.00
6413;BME280;3239;48.714;9.472;2023-04-07T12:12:26;98001.41;;;13.50;100.00
6413;BME280;3239;48.714;9.472;2023-04-07T12:14:53;98004.56;;;13.62;100.00
6413;BME280;3239;48.714;9.472;2023-04-07T12:19:46;97995.28;;;13.22;100.00
6413;BME280;3239;48.714;9.472;2023-04-07T12:22:12;98002.00;;;13.71;100.00
6413;BME280;3239;48.714;9.472;2023-04-07T12:24:38;97996.66;;;13.43;100.00
6413;BME280;3239;48.714;9.472;2023-04-07T12:27:03;98004.78;;;13.94;100.00
6413;BME280;3239;48.714;9.472;2023-04-07T12:29:29;98009.00;;;13.80;100.00
6413;BME280;3239;48.714;9.472;2023-04-07T12:31:55;98011.97;;;14.19;100.00
6413;BME280;3239;48.714;9.472;2023-04-07T12:34:21;98001.47;;;14.10;100.00
6413;BME280;3239;48.714;9.472;2023-04-07T12:36:47;98004.59;;;14.14;100.00
6413;BME280;3239;48.714;9.472;2023-04-07T12:39:14;98008.09;;;14.07;100.00
6413;BME280;3239;48.714;9.472;2023-04-07T12:41:40;98022.59;;;14.08;100.00
6413;BME280;3239;48.714;9.472;2023-04-07T12:44:06;98015.59;;;14.14;100.00
6413;BME280;3239;48.714;9.472;2023-04-07T12:46:32;98001.88;;;13.19;100.00
6413;BME280;3239;48.714;9.472;2023-04-07T12:48:58;98002.66;;;13.34;100.00
6413;BME280;3239;48.714;9.472;2023-04-07T12:51:25;98010.03;;;13.47;100.00
6413;BME280;3239;48.714;9.472;2023-04-07T12:53:51;98012.03;;;13.46;100.00
6413;BME280;3239;48.714;9.472;2023-04-07T12:56:19;97999.03;;;13.69;100.00
6413;BME280;3239;48.714;9.472;2023-04-07T12:58:47;98008.81;;;13.93;100.00
6413;BME280;3239;48.714;9.472;2023-04-07T13:01:13;98013.16;;;13.43;100.00
6413;BME280;3239;48.714;9.472;2023-04-07T13:03:39;98007.94;;;13.17;100.00
6413;BME280;3239;48.714;9.472;2023-04-07T13:06:05;97998.59;;;12.85;100.00
6413;BME280;3239;48.714;9.472;2023-04-07T13:08:32;98009.50;;;12.98;100.00
6413;BME280;3239;48.714;9.472;2023-04-07T13:10:57;98001.53;;;13.22;100.00
6413;BME280;3239;48.714;9.472;2023-04-07T13:13:23;98009.72;;;13.07;100.00
6413;BME280;3239;48.714;9.472;2023-04-07T13:15:49;98007.72;;;13.15;100.00
6413;BME280;3239;48.714;9.472;2023-04-07T13:18:15;98011.03;;;13.14;100.00
6413;BME280;3239;48.714;9.472;2023-04-07T13:20:41;98006.00;;;12.62;100.00
6413;BME280;3239;48.714;9.472;2023-04-07T13:23:06;98018.91;;;12.46;100.00
6413;BME280;3239;48.714;9.472;2023-04-07T13:25:32;98015.34;;;12.10;100.00
6413;BME280;3239;48.714;9.472;2023-04-07T13:27:58;98028.72;;;12.34;100.00
6413;BME280;3239;48.714;9.472;2023-04-07T13:30:24;98023.94;;;12.35;100.00
6413;BME280;3239;48.714;9.472;2023-04-07T13:32:50;98028.97;;;12.44;100.00
6413;BME280;3239;48.714;9.472;2023-04-07T13:35:16;98026.75;;;12.42;100.00
6413;BME280;3239;48.714;9.472;2023-04-07T13:37:42;98025.94;;;12.27;100.00
6413;BME280;3239;48.714;9.472;2023-04-07T13:40:11;98038.59;;;12.30;100.00
6413;BME280;3239;48.714;9.472;2023-04-07T13:42:38;98030.47;;;12.24;100.00
6413;BME280;3239;48.714;9.472;2023-04-07T13:45:05;98037.38;;;12.18;100.00